Time;durP1;ratioP1;P1;durP2;ratioP2;P2;SDS_P1;SDS_P2;PMS_P1;PMS_P2;Temp;Humidity;BMP_temperature;BMP_pressure;BME280_temperature;BME280_humidity;BME280_pressure;Samples;Min_cycle;Max_cycle;Signal;HPM_P1;HPM_P2
2022/08/07 00:01:52;;;;;;;;;2.25;2.00;;;;;21.37;33.50;101664.50;5015369;28;46593;-81
2022/08/07 00:04:17;;;;;;;;;3.50;2.75;;;;;21.33;33.65;101669.28;5015364;28;45657;-81
2022/08/07 00:06:43;;;;;;;;;2.00;2.00;;;;;21.33;33.47;101668.44;4997893;28;45728;-83
2022/08/07 00:09:08;;;;;;;;;4.00;3.00;;;;;21.23;33.25;101647.22;5016515;28;45499;-81
2022/08/07 00:11:34;;;;;;;;;3.50;3.50;;;;;21.28;33.94;101671.59;5014972;28;45735;-81
2022/08/07 00:13:59;;;;;;;;;3.50;3.50;;;;;21.23;33.80;101665.88;5014788;28;46221;-80
2022/08/07 00:16:25;;;;;;;;;4.00;3.50;;;;;21.17;33.88;101657.63;5014456;28;45497;-85
2022/08/07 00:18:50;;;;;;;;;3.00;3.00;;;;;21.16;33.86;101670.13;5014685;28;45793;-83
2022/08/07 00:21:16;;;;;;;;;3.00;2.75;;;;;21.15;33.88;101667.63;5014129;28;45639;-82
2022/08/07 00:23:41;;;;;;;;;3.00;1.50;;;;;21.09;34.09;101661.03;5014374;28;46344;-80
2022/08/07 00:26:10;;;;;;;;;2.75;2.75;;;;;21.04;34.08;101660.66;5014522;28;45658;-80
2022/08/07 00:28:35;;;;;;;;;2.75;2.75;;;;;21.02;34.09;101673.28;4996489;28;45646;-80
2022/08/07 00:31:04;;;;;;;;;4.00;3.50;;;;;20.91;34.29;101655.69;5014164;28;45633;-79
2022/08/07 00:33:30;;;;;;;;;3.00;3.00;;;;;20.86;34.72;101643.81;5016305;28;46314;-81
2022/08/07 00:39:18;;;;;;;;;3.00;3.00;;;;;20.79;34.80;101651.56;5015295;28;45623;-80
2022/08/07 00:41:52;;;;;;;;;4.00;3.75;;;;;20.76;34.97;101651.88;5016953;28;46606;-81
2022/08/07 00:44:18;;;;;;;;;2.50;2.50;;;;;20.69;34.93;101642.78;5018183;28;46421;-82
2022/08/07 00:46:43;;;;;;;;;2.50;2.50;;;;;20.68;34.90;101643.78;5017781;28;45654;-85
2022/08/07 00:49:09;;;;;;;;;3.00;3.00;;;;;20.57;35.54;101635.97;5017878;28;45635;-81
2022/08/07 00:51:34;;;;;;;;;3.00;2.50;;;;;20.64;35.22;101652.22;5017882;28;45598;-81
2022/08/07 00:54:00;;;;;;;;;3.00;3.00;;;;;20.51;35.74;101623.28;4999540;28;47139;-80
2022/08/07 00:56:30;;;;;;;;;3.00;3.00;;;;;20.46;35.87;101625.53;5017651;28;45725;-82
2022/08/07 00:58:57;;;;;;;;;3.75;3.00;;;;;20.50;35.90;101641.09;5018429;28;45476;-82
2022/08/07 01:01:22;;;;;;;;;3.00;3.00;;;;;20.36;35.87;101619.41;5018358;28;45669;-79
2022/08/07 01:03:50;;;;;;;;;3.50;3.50;;;;;20.44;36.11;101635.50;5018445;28;45728;-79
2022/08/07 01:09:37;;;;;;;;;3.00;3.00;;;;;20.35;36.41;101629.22;5018289;28;45583;-80
2022/08/07 01:12:03;;;;;;;;;4.00;3.75;;;;;20.32;36.44;101637.50;5018092;28;45833;-80
2022/08/07 01:14:29;;;;;;;;;3.50;3.00;;;;;20.29;36.03;101636.94;5018089;28;46101;-81
2022/08/07 01:16:55;;;;;;;;;3.50;3.00;;;;;20.16;36.31;101612.47;4999910;28;45697;-81
2022/08/07 01:19:21;;;;;;;;;3.25;2.75;;;;;20.20;36.41;101627.16;5000319;28;45622;-84
2022/08/07 01:21:49;;;;;;;;;3.00;2.50;;;;;20.20;36.86;101629.81;5019922;28;45612;-81
2022/08/07 01:24:17;;;;;;;;;3.50;3.00;;;;;20.11;36.66;101620.91;5019729;28;46015;-81
2022/08/07 01:26:42;;;;;;;;;4.00;3.25;;;;;20.03;36.30;101603.00;5020085;28;45478;-79
2022/08/07 01:29:08;;;;;;;;;2.50;2.50;;;;;20.02;36.32;101609.31;5018508;28;45561;-79
2022/08/07 01:31:34;;;;;;;;;3.00;3.00;;;;;20.00;36.91;101607.78;5017611;28;45648;-81
2022/08/07 01:34:00;;;;;;;;;4.00;4.00;;;;;20.00;36.97;101618.41;5018125;28;45588;-82
2022/08/07 01:39:47;;;;;;;;;3.25;3.25;;;;;19.98;37.70;101613.25;5016457;28;45451;-79
2022/08/07 01:42:13;;;;;;;;;4.25;4.00;;;;;19.97;37.06;101624.03;5018150;28;45785;-80
2022/08/07 01:44:40;;;;;;;;;2.00;2.00;;;;;19.95;37.24;101626.84;5017898;28;46165;-81
2022/08/07 01:47:06;;;;;;;;;3.00;2.50;;;;;19.90;37.10;101621.13;5016902;28;45870;-79
2022/08/07 01:49:32;;;;;;;;;3.50;3.00;;;;;19.90;37.27;101630.91;5016536;28;45570;-79
2022/08/07 01:55:25;;;;;;;;;4.00;3.25;;;;;19.83;37.79;101629.81;5014247;28;45735;-81
2022/08/07 01:57:54;;;;;;;;;4.00;3.00;;;;;19.81;37.93;101629.13;5017433;28;45531;-80
2022/08/07 02:00:20;;;;;;;;;4.00;4.00;;;;;19.76;37.50;101628.72;4999136;28;45626;-83
2022/08/07 02:02:55;;;;;;;;;3.00;3.00;;;;;19.75;37.91;101633.19;5017240;28;46504;-81
2022/08/07 02:05:32;;;;;;;;;4.75;3.75;;;;;19.71;37.97;101629.13;5016908;28;46489;-84
2022/08/07 02:08:02;;;;;;;;;3.00;3.00;;;;;19.69;38.13;101623.13;5016601;28;45631;-81
2022/08/07 02:10:29;;;;;;;;;3.75;3.25;;;;;19.63;38.45;101624.53;5016919;28;45449;-85
2022/08/07 02:12:59;;;;;;;;;3.00;2.25;;;;;19.66;38.60;101631.38;5017256;28;46494;-83
2022/08/07 02:15:26;;;;;;;;;3.50;3.00;;;;;19.57;37.97;101618.94;4999298;28;48526;-79
2022/08/07 02:17:53;;;;;;;;;3.25;2.00;;;;;19.52;38.08;101627.34;4997835;28;45554;-80
2022/08/07 02:20:21;;;;;;;;;4.00;3.50;;;;;19.47;38.46;101623.44;5015803;28;45556;-81
2022/08/07 02:22:48;;;;;;;;;4.00;4.00;;;;;19.50;38.43;101631.13;5015919;28;46606;-80
2022/08/07 02:25:16;;;;;;;;;3.00;3.00;;;;;19.43;39.09;101614.88;5015783;28;45645;-80
2022/08/07 02:27:44;;;;;;;;;3.00;3.00;;;;;19.49;38.65;101626.78;4997821;28;45768;-79
2022/08/07 02:30:11;;;;;;;;;3.00;3.00;;;;;19.42;38.60;101615.88;5015915;28;45520;-79
2022/08/07 02:32:37;;;;;;;;;3.50;3.50;;;;;19.42;39.20;101615.03;5015683;28;46544;-80
2022/08/07 02:35:04;;;;;;;;;3.00;3.00;;;;;19.42;39.03;101625.66;5016286;28;46607;-80
2022/08/07 02:40:53;;;;;;;;;3.00;3.00;;;;;19.34;39.28;101613.06;5015774;28;45650;-79
2022/08/07 02:43:19;;;;;;;;;3.00;3.00;;;;;19.35;39.41;101621.88;5015400;28;45575;-79
2022/08/07 02:45:46;;;;;;;;;3.00;3.00;;;;;19.30;39.91;101619.66;5015884;28;46091;-83
2022/08/07 02:48:12;;;;;;;;;3.00;2.75;;;;;19.29;39.55;101621.47;5015816;28;45553;-83
2022/08/07 02:50:43;;;;;;;;;2.50;2.25;;;;;19.24;39.80;101617.53;5015311;28;45700;-79
2022/08/07 02:53:16;;;;;;;;;2.00;2.00;;;;;19.22;39.80;101609.69;5015474;28;45710;-81
2022/08/07 02:55:46;;;;;;;;;4.00;4.00;;;;;19.08;40.24;101596.84;5015172;28;46457;-82
2022/08/07 02:58:16;;;;;;;;;4.50;3.50;;;;;19.02;40.23;101593.91;5015943;28;45744;-84
2022/08/07 03:00:42;;;;;;;;;2.50;2.25;;;;;19.08;40.76;101617.25;5015781;28;45598;-79
2022/08/07 03:03:09;;;;;;;;;4.75;3.00;;;;;19.05;41.11;101614.91;5015307;28;45667;-80
2022/08/07 03:05:36;;;;;;;;;3.00;3.00;;;;;18.98;40.89;101619.06;5015766;28;46231;-81
2022/08/07 03:08:03;;;;;;;;;3.50;3.50;;;;;18.95;41.02;101620.19;5015290;28;45566;-81
2022/08/07 03:10:28;;;;;;;;;4.00;3.25;;;;;18.77;41.07;101593.47;5015281;28;45517;-79
2022/08/07 03:12:55;;;;;;;;;4.00;3.00;;;;;18.77;40.95;101600.59;5015344;28;45532;-82
2022/08/07 03:15:20;;;;;;;;;3.00;3.00;;;;;18.73;41.26;101601.88;4996651;28;46683;-82
2022/08/07 03:17:47;;;;;;;;;3.00;2.50;;;;;18.67;40.62;101595.28;5015367;28;45631;-81
2022/08/07 03:20:13;;;;;;;;;2.50;2.00;;;;;18.70;41.20;101605.63;4997516;28;45720;-79
2022/08/07 03:26:03;;;;;;;;;3.00;3.00;;;;;18.66;41.60;101611.34;5015898;28;45887;-79
2022/08/07 03:28:29;;;;;;;;;2.50;2.50;;;;;18.67;41.54;101618.34;4999343;28;45584;-80
2022/08/07 03:31:17;;;;;;;;;4.00;3.50;;;;;18.58;41.63;101601.41;5017107;28;45635;-80
2022/08/07 03:33:43;;;;;;;;;4.00;3.75;;;;;18.52;41.63;101599.25;5015594;28;45563;-79
2022/08/07 03:36:09;;;;;;;;;4.25;3.75;;;;;18.60;41.30;101610.06;5015109;28;45956;-80
2022/08/07 03:38:38;;;;;;;;;4.00;4.00;;;;;18.60;42.13;101612.72;5015298;28;45618;-84
2022/08/07 03:41:04;;;;;;;;;4.00;4.00;;;;;18.54;42.03;101599.13;5015432;28;45693;-82
2022/08/07 03:43:31;;;;;;;;;4.00;3.50;;;;;18.51;41.66;101602.91;5015328;28;45878;-80
2022/08/07 03:45:56;;;;;;;;;4.00;4.00;;;;;18.53;42.09;101613.34;5015275;28;46677;-80
2022/08/07 03:48:22;;;;;;;;;4.00;3.00;;;;;18.48;42.09;101600.50;4997073;28;45603;-83
2022/08/07 03:50:48;;;;;;;;;3.75;3.75;;;;;18.53;42.17;101611.56;5015189;28;45572;-80
2022/08/07 03:56:39;;;;;;;;;3.50;3.00;;;;;18.50;42.10;101614.50;5013099;28;45745;-80
2022/08/07 03:59:05;;;;;;;;;4.00;3.00;;;;;18.46;42.25;101611.25;5016252;28;45817;-83
2022/08/07 04:01:32;;;;;;;;;3.00;3.00;;;;;18.46;42.47;101621.06;5016257;28;45728;-83
2022/08/07 04:03:59;;;;;;;;;3.25;3.00;;;;;18.41;42.44;101613.47;5015279;28;46573;-80
2022/08/07 04:06:25;;;;;;;;;4.00;3.00;;;;;18.39;42.04;101609.28;5015635;28;46450;-80
2022/08/07 04:08:51;;;;;;;;;3.25;3.00;;;;;18.35;42.81;101600.72;5015492;28;45659;-81
2022/08/07 04:11:16;;;;;;;;;4.00;3.25;;;;;18.34;42.90;101604.38;5014795;28;45499;-82
2022/08/07 04:13:44;;;;;;;;;3.00;3.00;;;;;18.32;42.97;101601.00;5014906;28;45488;-79
2022/08/07 04:16:09;;;;;;;;;3.75;3.00;;;;;18.34;42.75;101606.19;5000518;28;46821;-81
2022/08/07 04:18:35;;;;;;;;;4.00;4.00;;;;;18.31;42.40;101606.44;5021943;28;45675;-80
2022/08/07 04:21:01;;;;;;;;;3.00;2.25;;;;;18.31;42.96;101612.59;5021975;28;45643;-81
2022/08/07 04:26:48;;;;;;;;;3.25;3.00;;;;;18.29;42.72;101614.56;5021485;28;45732;-80
2022/08/07 04:29:14;;;;;;;;;5.00;3.00;;;;;18.25;43.00;101602.53;5021781;28;45580;-80
2022/08/07 04:31:40;;;;;;;;;4.00;3.25;;;;;18.30;43.10;101604.78;5021666;28;45503;-80
2022/08/07 04:34:06;;;;;;;;;3.00;3.00;;;;;18.27;43.36;101595.28;5021278;28;45919;-80
2022/08/07 04:36:33;;;;;;;;;3.00;3.00;;;;;18.16;43.64;101586.56;5021661;28;46038;-79
2022/08/07 04:38:59;;;;;;;;;3.25;3.00;;;;;18.14;43.62;101583.22;5022201;28;45713;-80
2022/08/07 04:41:24;;;;;;;;;4.75;3.25;;;;;18.24;43.79;101602.69;5023226;28;45747;-80
2022/08/07 04:43:50;;;;;;;;;2.50;2.25;;;;;18.21;43.65;101605.56;5023746;28;45705;-79
2022/08/07 04:46:46;;;;;;;;;4.00;3.00;;;;;18.26;43.95;101608.66;5023543;28;45646;-80
2022/08/07 04:50:10;;;;;;;;;3.00;3.00;;;;;18.21;43.68;101611.72;5021929;28;45524;-79
2022/08/07 04:52:49;;;;;;;;;3.00;3.00;;;;;18.18;43.30;101617.31;4921847;28;45665;-81
2022/08/07 04:55:36;;;;;;;;;4.00;3.50;;;;;18.18;43.74;101619.13;4921466;28;45663;-79
2022/08/07 04:58:18;;;;;;;;;4.00;4.00;;;;;18.15;43.81;101612.25;4902185;29;45969;-80
2022/08/07 05:00:51;;;;;;;;;3.00;3.00;;;;;18.16;43.64;101623.72;4901880;29;45682;-80
2022/08/07 05:03:26;;;;;;;;;3.50;3.50;;;;;18.10;43.78;101622.44;4902268;29;45592;-81
2022/08/07 05:06:01;;;;;;;;;5.00;3.25;;;;;18.15;43.68;101629.97;4902090;29;46545;-79
2022/08/07 05:08:33;;;;;;;;;4.00;3.00;;;;;18.15;44.16;101632.63;4903514;29;45921;-79
2022/08/07 05:11:22;;;;;;;;;3.00;3.00;;;;;18.13;43.85;101634.59;4903860;29;45706;-80
2022/08/07 05:13:58;;;;;;;;;3.00;3.00;;;;;18.11;44.40;101641.84;4906389;29;45677;-79
2022/08/07 05:16:28;;;;;;;;;3.00;3.00;;;;;18.05;44.53;101629.94;4906935;29;45769;-81
2022/08/07 05:19:02;;;;;;;;;4.25;4.00;;;;;18.08;44.45;101640.31;4891079;29;46342;-78
2022/08/07 05:21:30;;;;;;;;;6.25;3.75;;;;;18.04;44.48;101641.50;4907103;29;45773;-82
2022/08/07 05:24:01;;;;;;;;;3.50;3.50;;;;;17.97;44.79;101629.78;4992017;28;45829;-80
2022/08/07 05:26:31;;;;;;;;;2.00;2.00;;;;;18.06;44.46;101644.88;5003273;28;45634;-80
2022/08/07 05:29:00;;;;;;;;;2.75;2.75;;;;;18.02;44.86;101649.63;5003168;28;45845;-80
2022/08/07 05:31:29;;;;;;;;;4.00;4.00;;;;;18.01;44.09;101633.84;5003822;28;45741;-84
2022/08/07 05:33:56;;;;;;;;;3.00;3.00;;;;;18.11;44.41;101661.25;5002248;28;45750;-81
2022/08/07 05:36:22;;;;;;;;;4.00;3.75;;;;;18.06;44.24;101650.19;5001691;28;46395;-79
2022/08/07 05:38:49;;;;;;;;;3.75;3.75;;;;;18.12;44.56;101659.44;5003019;28;45654;-80
2022/08/07 05:41:15;;;;;;;;;4.00;3.00;;;;;18.03;44.92;101634.53;5000650;28;45618;-83
2022/08/07 05:43:47;;;;;;;;;6.00;4.25;;;;;18.13;44.51;101655.81;5001400;28;45757;-82
2022/08/07 05:46:15;;;;;;;;;3.00;3.00;;;;;18.11;44.92;101666.56;4998784;28;46712;-81
2022/08/07 05:48:41;;;;;;;;;3.00;3.00;;;;;18.03;44.93;101653.09;5002784;28;46018;-80
2022/08/07 05:51:09;;;;;;;;;3.00;3.00;;;;;17.99;44.96;101647.22;5003346;28;45706;-79
2022/08/07 05:53:34;;;;;;;;;2.25;2.00;;;;;17.97;44.92;101645.69;4985840;28;45592;-80
2022/08/07 05:56:01;;;;;;;;;3.50;3.00;;;;;17.99;44.74;101652.53;5008688;28;46541;-79
2022/08/07 05:58:28;;;;;;;;;5.00;4.25;;;;;17.91;45.23;101644.41;5023103;28;45923;-81
2022/08/07 06:00:56;;;;;;;;;3.00;3.00;;;;;18.05;45.21;101667.06;5021942;28;45514;-78
2022/08/07 06:03:23;;;;;;;;;2.50;2.50;;;;;17.94;45.02;101657.38;5022058;28;45705;-79
2022/08/07 06:05:49;;;;;;;;;5.25;4.25;;;;;17.95;44.91;101660.88;5024388;28;45850;-80
2022/08/07 06:08:18;;;;;;;;;4.50;4.00;;;;;17.93;45.32;101658.34;5026149;28;46541;-78
2022/08/07 06:10:44;;;;;;;;;4.25;4.00;;;;;18.02;44.88;101662.03;5022543;28;45607;-78
2022/08/07 06:13:10;;;;;;;;;4.00;4.00;;;;;18.01;45.16;101655.91;5019669;28;45441;-78
2022/08/07 06:15:36;;;;;;;;;2.75;2.00;;;;;18.03;45.26;101653.94;5020258;28;45555;-82
2022/08/07 06:18:02;;;;;;;;;3.00;3.00;;;;;18.05;44.71;101656.47;5021035;28;45654;-82
2022/08/07 06:20:29;;;;;;;;;3.75;3.00;;;;;18.07;45.11;101651.88;5002217;28;45755;-79
2022/08/07 06:22:55;;;;;;;;;5.50;3.75;;;;;18.18;44.86;101659.75;5020889;28;45646;-80
2022/08/07 06:25:21;;;;;;;;;1.75;1.00;;;;;18.20;44.73;101663.09;5020200;28;45611;-82
2022/08/07 06:27:47;;;;;;;;;2.75;2.75;;;;;18.23;44.48;101662.84;5021786;28;46257;-79
2022/08/07 06:30:12;;;;;;;;;3.00;3.00;;;;;18.26;44.86;101651.13;5022727;28;45425;-81
2022/08/07 06:32:38;;;;;;;;;4.00;3.75;;;;;18.29;44.25;101654.38;5023702;28;45604;-78
2022/08/07 06:35:04;;;;;;;;;3.25;3.25;;;;;18.38;44.47;101664.16;5021993;28;45597;-79
2022/08/07 06:37:29;;;;;;;;;3.00;2.50;;;;;18.40;44.42;101653.44;5020534;28;46638;-79
2022/08/07 06:39:55;;;;;;;;;3.25;2.50;;;;;18.44;43.79;101660.97;5021522;28;45576;-80
2022/08/07 06:42:35;;;;;;;;;3.25;2.50;;;;;18.44;43.87;101653.03;5020057;28;45544;-79
2022/08/07 06:45:02;;;;;;;;;3.25;3.25;;;;;18.46;43.70;101636.97;5019610;28;45570;-80
2022/08/07 06:47:28;;;;;;;;;3.00;2.00;;;;;18.50;44.13;101638.38;5000785;28;48005;-84
2022/08/07 06:49:53;;;;;;;;;4.00;4.00;;;;;18.60;44.10;101651.69;5018416;28;45598;-82
2022/08/07 06:52:22;;;;;;;;;2.75;2.50;;;;;18.68;44.10;101659.81;5018363;28;45571;-80
2022/08/07 06:58:12;;;;;;;;;2.00;2.00;;;;;18.74;43.52;101656.63;5015776;28;45668;-81
2022/08/07 07:00:40;;;;;;;;;4.00;2.00;;;;;18.76;43.45;101654.69;5017612;28;45779;-80
2022/08/07 07:03:07;;;;;;;;;3.00;3.00;;;;;18.83;43.46;101661.13;5018092;28;45634;-83
2022/08/07 07:05:32;;;;;;;;;3.00;3.00;;;;;18.87;43.30;101659.88;5016913;28;45735;-84
2022/08/07 07:07:57;;;;;;;;;3.00;2.75;;;;;18.85;43.30;101649.38;4998802;28;47231;-82
2022/08/07 07:10:30;;;;;;;;;2.00;2.00;;;;;18.95;43.01;101670.63;5016556;28;46061;-81
2022/08/07 07:13:02;;;;;;;;;2.50;2.50;;;;;18.83;43.16;101659.31;5017790;28;45796;-81
2022/08/07 07:15:35;;;;;;;;;2.00;2.00;;;;;18.90;43.50;101654.28;5017168;28;46577;-80
2022/08/07 07:18:43;;;;;;;;;2.75;2.00;;;;;19.00;43.13;101660.44;5017895;28;45491;-82
2022/08/07 07:21:25;;;;;;;;;2.50;2.00;;;;;19.05;43.20;101674.19;4955547;28;45788;-80
2022/08/07 07:23:51;;;;;;;;;3.00;3.00;;;;;19.09;42.71;101664.09;4957455;28;45593;-82
2022/08/07 07:26:20;;;;;;;;;2.50;2.50;;;;;19.15;43.21;101661.75;4955704;28;46958;-79
2022/08/07 07:29:07;;;;;;;;;2.25;2.25;;;;;19.08;42.93;101649.97;4955123;28;45605;-80
2022/08/07 07:31:39;;;;;;;;;3.00;2.00;;;;;19.20;42.66;101651.53;4954864;28;45850;-80
2022/08/07 07:34:07;;;;;;;;;3.00;3.00;;;;;19.24;42.29;101663.56;4955621;28;45842;-81
2022/08/07 07:36:33;;;;;;;;;2.25;2.25;;;;;19.32;42.66;101664.69;4938239;28;48716;-81
2022/08/07 07:39:01;;;;;;;;;2.00;2.00;;;;;19.27;42.54;101655.28;4954578;28;46367;-79
2022/08/07 07:41:28;;;;;;;;;2.00;2.00;;;;;19.33;41.84;101650.41;4955039;28;45653;-79
2022/08/07 07:43:56;;;;;;;;;2.00;2.00;;;;;19.35;42.34;101641.31;4954830;28;45628;-80
2022/08/07 07:46:22;;;;;;;;;1.00;1.00;;;;;19.44;42.36;101644.94;4922408;28;48153;-81
2022/08/07 07:48:50;;;;;;;;;3.00;2.00;;;;;19.50;41.93;101642.59;4955109;28;46161;-79
2022/08/07 07:51:17;;;;;;;;;2.25;2.25;;;;;19.51;41.67;101640.78;4954394;28;45739;-80
2022/08/07 07:53:45;;;;;;;;;2.00;2.00;;;;;19.58;41.19;101640.09;4954935;28;45734;-80
2022/08/07 07:56:12;;;;;;;;;2.00;1.50;;;;;19.69;41.30;101641.75;5012012;28;46421;-80
2022/08/07 07:58:39;;;;;;;;;2.00;2.00;;;;;19.69;41.30;101639.09;5014856;28;46109;-83
2022/08/07 08:01:06;;;;;;;;;2.00;2.00;;;;;19.79;40.88;101650.53;5015497;28;45664;-81
2022/08/07 08:03:35;;;;;;;;;1.00;1.00;;;;;19.82;40.93;101636.94;5015378;28;45715;-82
2022/08/07 08:06:01;;;;;;;;;2.00;2.00;;;;;19.91;40.78;101643.25;5015509;28;45668;-80
2022/08/07 08:08:29;;;;;;;;;2.25;2.25;;;;;19.97;40.82;101642.66;4998058;28;47183;-80
2022/08/07 08:10:55;;;;;;;;;1.75;1.75;;;;;19.95;39.69;101641.97;5014901;28;45617;-80
2022/08/07 08:13:24;;;;;;;;;3.00;2.00;;;;;20.05;40.11;101646.28;4997168;28;45857;-82
2022/08/07 08:15:51;;;;;;;;;2.00;2.00;;;;;20.02;39.64;101627.94;5015744;28;45574;-81
2022/08/07 08:18:20;;;;;;;;;3.50;2.75;;;;;20.10;40.12;101638.69;5000164;28;47257;-77
2022/08/07 08:20:47;;;;;;;;;1.50;1.25;;;;;20.19;40.05;101636.16;5020611;28;45528;-79
2022/08/07 08:29:20;;;;;;;;;3.00;2.25;;;;;20.37;39.30;101632.59;5017855;28;45997;-79
2022/08/07 08:31:48;;;;;;;;;1.00;1.00;;;;;20.32;39.31;101610.06;4998974;28;45616;-81
2022/08/07 08:34:18;;;;;;;;;1.75;1.50;;;;;20.39;39.11;101608.50;5016183;28;45588;-80
2022/08/07 08:36:48;;;;;;;;;2.25;2.00;;;;;20.52;39.35;101620.44;5017655;28;46428;-80
2022/08/07 08:39:13;;;;;;;;;2.75;2.00;;;;;20.62;38.21;101622.25;4999155;28;48106;-79
2022/08/07 08:41:55;;;;;;;;;1.00;1.00;;;;;20.55;38.50;101611.34;5016551;28;45855;-80
2022/08/07 08:44:24;;;;;;;;;1.00;1.00;;;;;20.75;38.40;101622.72;5015740;28;45525;-79
2022/08/07 08:47:07;;;;;;;;;1.00;1.00;;;;;20.80;37.88;101609.78;5017749;28;46628;-80
2022/08/07 08:49:40;;;;;;;;;1.50;1.50;;;;;20.89;38.06;101616.88;5016748;28;46024;-81
2022/08/07 08:52:27;;;;;;;;;1.00;1.00;;;;;20.94;37.13;101606.59;5017449;28;45568;-81
2022/08/07 08:54:57;;;;;;;;;0.75;0.75;;;;;21.02;37.46;101608.50;5017244;28;45738;-80
2022/08/07 08:57:43;;;;;;;;;0.75;0.75;;;;;21.04;36.75;101615.34;5016037;28;45643;-80
2022/08/07 09:00:10;;;;;;;;;1.25;1.25;;;;;21.14;37.23;101616.16;4993578;28;47248;-82
2022/08/07 09:02:58;;;;;;;;;1.00;1.00;;;;;21.23;37.04;101614.38;5017103;28;45622;-80
2022/08/07 09:05:42;;;;;;;;;0.50;0.50;;;;;21.29;36.47;101614.59;4999774;28;45622;-80
2022/08/07 09:08:29;;;;;;;;;1.00;1.00;;;;;21.32;35.75;101616.16;5017591;28;45677;-80
2022/08/07 09:11:06;;;;;;;;;0.50;0.50;;;;;21.41;35.88;101622.38;5017582;28;45725;-83
2022/08/07 09:13:38;;;;;;;;;0.75;0.75;;;;;21.43;34.80;101613.22;5019547;28;45789;-83
2022/08/07 09:16:42;;;;;;;;;1.50;1.00;;;;;21.50;35.22;101616.94;5020436;28;45516;-83
2022/08/07 09:19:31;;;;;;;;;0.00;0.00;;;;;21.58;35.57;101621.50;5021856;28;45731;-82
2022/08/07 09:21:59;;;;;;;;;1.00;1.00;;;;;21.66;35.25;101621.56;5005373;28;47075;-80
2022/08/07 09:27:59;;;;;;;;;0.75;0.75;;;;;21.79;34.47;101611.31;5023633;28;45606;-80
2022/08/07 09:30:36;;;;;;;;;3.00;1.25;;;;;21.82;34.35;101610.16;5023432;28;46017;-81
2022/08/07 09:33:31;;;;;;;;;1.00;1.00;;;;;21.90;34.01;101608.38;5003245;28;47188;-83
2022/08/07 09:36:06;;;;;;;;;2.00;2.00;;;;;21.90;33.87;101591.53;5003503;28;45781;-80
2022/08/07 09:39:08;;;;;;;;;1.25;1.25;;;;;22.05;33.19;101603.31;5020199;28;45647;-82
2022/08/07 09:45:30;;;;;;;;;2.00;1.75;;;;;22.16;33.75;101619.91;5020522;28;45890;-82
2022/08/07 09:48:08;;;;;;;;;2.00;1.75;;;;;22.23;33.34;101622.78;4920281;28;45669;-83
2022/08/07 09:51:02;;;;;;;;;1.00;1.00;;;;;22.27;32.58;101610.78;4919407;28;45881;-83
2022/08/07 09:53:33;;;;;;;;;1.00;1.00;;;;;22.30;32.83;101606.91;4918163;28;46994;-81
2022/08/07 09:56:14;;;;;;;;;2.00;2.00;;;;;22.34;32.95;101603.78;4917887;28;45916;-82
2022/08/07 09:59:10;;;;;;;;;4.00;2.00;;;;;22.39;32.59;101612.16;4917325;28;45763;-81
2022/08/07 10:02:04;;;;;;;;;2.00;2.00;;;;;22.44;33.12;101598.31;4918072;28;45790;-82
2022/08/07 10:04:36;;;;;;;;;2.00;2.00;;;;;22.49;33.23;101594.16;4897483;28;47839;-84
2022/08/07 10:07:09;;;;;;;;;2.00;2.00;;;;;22.54;32.96;101605.19;4917778;28;46075;-81
2022/08/07 10:13:10;;;;;;;;;1.00;1.00;;;;;22.64;33.19;101594.38;4917984;28;45741;-86
2022/08/07 10:16:14;;;;;;;;;1.75;1.75;;;;;22.67;32.34;101566.50;4918303;28;45590;-85
2022/08/07 10:18:45;;;;;;;;;2.00;2.00;;;;;22.75;32.71;101582.56;4861525;29;47533;-82
2022/08/07 10:21:20;;;;;;;;;2.25;2.00;;;;;22.79;32.18;101573.22;4860864;29;45548;-84
2022/08/07 10:23:57;;;;;;;;;3.00;2.00;;;;;22.82;32.42;101578.25;4869051;28;45654;-83
2022/08/07 10:30:05;;;;;;;;;4.00;3.00;;;;;22.87;31.18;101567.88;4919039;28;46104;-80
2022/08/07 10:32:49;;;;;;;;;3.00;2.25;;;;;22.90;31.71;101557.69;4905874;28;46059;-82
2022/08/07 10:35:35;;;;;;;;;2.00;2.00;;;;;22.89;32.03;101566.69;4940981;28;45851;-81
2022/08/07 10:38:23;;;;;;;;;2.75;2.75;;;;;22.94;32.01;101561.69;4927579;28;45768;-80
2022/08/07 10:41:18;;;;;;;;;3.00;2.50;;;;;23.03;32.04;101575.91;4910681;28;47210;-83
2022/08/07 10:44:03;;;;;;;;;2.50;2.50;;;;;23.06;31.54;101562.22;4945604;28;45686;-79
2022/08/07 10:46:38;;;;;;;;;2.00;2.00;;;;;23.01;31.71;101546.66;4956653;28;45803;-80
2022/08/07 10:49:53;;;;;;;;;2.00;2.00;;;;;23.13;31.33;101560.53;4950991;28;45655;-80
2022/08/07 10:52:27;;;;;;;;;3.00;2.50;;;;;23.15;31.62;101552.38;4900160;29;47382;-80
2022/08/07 10:58:43;;;;;;;;;3.25;2.25;;;;;23.28;31.27;101550.84;4899251;29;45588;-81
2022/08/07 11:01:11;;;;;;;;;2.00;2.00;;;;;23.33;31.22;101544.97;4860747;29;46368;-78
2022/08/07 11:03:43;;;;;;;;;2.00;2.00;;;;;23.30;30.59;101532.78;4860227;29;45943;-81
2022/08/07 11:07:02;;;;;;;;;2.00;2.00;;;;;23.40;31.37;101543.31;4859483;29;45717;-80
2022/08/07 11:09:35;;;;;;;;;3.75;3.00;;;;;23.40;31.70;101543.31;4840957;29;45933;-82
2022/08/07 11:15:26;;;;;;;;;3.00;3.00;;;;;23.46;30.89;101523.94;4842186;29;45683;-84
2022/08/07 11:18:16;;;;;;;;;2.00;2.00;;;;;23.46;30.94;101520.44;4841929;29;45718;-81
2022/08/07 11:20:48;;;;;;;;;2.25;2.00;;;;;23.59;30.81;101526.91;4842470;29;45824;-81
2022/08/07 11:23:22;;;;;;;;;3.50;2.00;;;;;23.62;30.34;101526.56;4842200;29;46779;-81
2022/08/07 11:25:57;;;;;;;;;1.75;1.75;;;;;23.66;30.02;101521.72;4844726;29;45759;-84
2022/08/07 11:28:28;;;;;;;;;3.00;3.00;;;;;23.66;30.05;101519.88;4888941;29;45978;-81
2022/08/07 11:31:21;;;;;;;;;3.25;3.00;;;;;23.73;30.33;101518.19;4899781;29;45849;-82
2022/08/07 11:33:53;;;;;;;;;4.00;4.00;;;;;23.75;30.80;101515.34;4899202;29;46347;-83
2022/08/07 11:36:57;;;;;;;;;2.00;2.00;;;;;23.79;30.61;101500.59;4898510;29;46559;-83
2022/08/07 11:39:31;;;;;;;;;3.00;3.00;;;;;23.84;30.36;101504.44;4938317;28;45854;-81
2022/08/07 11:42:04;;;;;;;;;4.00;3.00;;;;;23.86;30.72;101498.88;4958605;28;45575;-79
2022/08/07 11:44:45;;;;;;;;;4.00;3.50;;;;;23.90;29.47;101496.72;4999392;28;46914;-80
2022/08/07 11:47:55;;;;;;;;;3.00;2.50;;;;;23.92;30.09;101490.16;4980996;28;46970;-82
2022/08/07 11:50:26;;;;;;;;;3.00;3.00;;;;;23.95;29.91;101497.03;4936713;28;45713;-81
2022/08/07 11:53:08;;;;;;;;;3.75;3.00;;;;;23.98;29.63;101491.31;4936597;28;45674;-81
2022/08/07 11:59:11;;;;;;;;;4.00;4.00;;;;;24.07;29.89;101483.06;4934498;28;46228;-81
2022/08/07 12:01:59;;;;;;;;;6.00;6.00;;;;;24.15;30.40;101482.19;4936537;28;45645;-81
2022/08/07 12:04:56;;;;;;;;;3.00;3.00;;;;;24.16;29.84;101481.19;4936585;28;45784;-84
2022/08/07 12:07:31;;;;;;;;;4.00;3.50;;;;;24.26;29.86;101489.84;4934628;28;45709;-79
2022/08/07 12:10:04;;;;;;;;;4.00;4.00;;;;;24.25;30.01;101478.28;4936672;28;46011;-80
2022/08/07 12:12:54;;;;;;;;;3.00;3.00;;;;;24.31;29.65;101482.13;4938374;28;45902;-79
2022/08/07 12:15:26;;;;;;;;;3.00;3.00;;;;;24.34;29.00;101478.25;4922332;28;45582;-83
2022/08/07 12:17:58;;;;;;;;;3.00;3.00;;;;;24.29;29.23;101476.13;4935641;28;46513;-83
2022/08/07 12:20:54;;;;;;;;;3.00;3.00;;;;;24.41;29.41;101481.88;4970588;28;48296;-81
2022/08/07 12:23:30;;;;;;;;;4.00;4.00;;;;;24.44;29.94;101473.50;5018295;28;45660;-80
2022/08/07 12:29:34;;;;;;;;;3.75;3.00;;;;;24.55;29.12;101481.13;5017867;28;45677;-79
2022/08/07 12:32:13;;;;;;;;;2.75;2.75;;;;;24.57;28.65;101476.41;5016758;28;46366;-81
2022/08/07 12:34:40;;;;;;;;;3.00;3.00;;;;;24.61;28.58;101480.41;5017913;28;45622;-80
2022/08/07 12:37:09;;;;;;;;;4.00;4.00;;;;;24.63;28.94;101463.13;5018372;28;45679;-81
2022/08/07 12:39:35;;;;;;;;;4.00;3.00;;;;;24.62;29.47;101460.63;5000876;28;46912;-81
2022/08/07 12:45:29;;;;;;;;;3.50;3.50;;;;;24.79;29.26;101458.63;5019838;28;45618;-79
2022/08/07 12:48:01;;;;;;;;;3.00;3.00;;;;;24.79;29.60;101446.06;5022148;28;45575;-81
2022/08/07 12:50:58;;;;;;;;;4.00;4.00;;;;;24.87;29.49;101439.81;5026106;28;48615;-82
2022/08/07 12:53:23;;;;;;;;;3.00;3.00;;;;;24.91;28.77;101438.47;5032208;28;46466;-81
2022/08/07 12:55:48;;;;;;;;;3.50;3.50;;;;;24.93;28.66;101456.03;5026888;28;45243;-80